Time;durP1;ratioP1;P1;durP2;ratioP2;P2;SDS_P1;SDS_P2;PMS_P1;PMS_P2;Temp;Humidity;BMP_temperature;BMP_pressure;BME280_temperature;BME280_humidity;BME280_pressure;Samples;Min_cycle;Max_cycle;Signal;HPM_P1;HPM_P2
2023/10/09 00:03:00;;;;;;;21.00;12.90;;;;;;;15.25;100.00;101953.88;5094530;28;20054;-61
2023/10/09 00:05:38;;;;;;;24.73;13.07;;;;;;;15.20;100.00;101958.28;5094076;28;20035;-61
2023/10/09 00:08:04;;;;;;;23.17;12.85;;;;;;;15.21;100.00;101943.19;5094162;28;20119;-62
2023/10/09 00:10:45;;;;;;;22.92;12.73;;;;;;;15.21;100.00;101938.75;5094037;28;20056;-62
2023/10/09 00:13:11;;;;;;;21.50;12.68;;;;;;;15.23;100.00;101944.09;5094243;28;20036;-62
2023/10/09 00:15:36;;;;;;;22.50;13.02;;;;;;;15.22;100.00;101934.31;5093979;28;20439;-61
2023/10/09 00:18:12;;;;;;;25.38;12.65;;;;;;;15.25;100.00;101931.69;5093902;28;20111;-61
2023/10/09 00:20:42;;;;;;;22.42;13.20;;;;;;;15.26;100.00;101937.03;5094083;28;20032;-60
2023/10/09 00:23:15;;;;;;;20.00;12.07;;;;;;;15.32;100.00;101944.16;5094185;28;20085;-61
2023/10/09 00:28:47;;;;;;;23.60;13.48;;;;;;;15.39;100.00;101926.47;5080246;28;20048;-61
2023/10/09 00:31:16;;;;;;;21.25;13.18;;;;;;;15.37;100.00;101920.22;5093940;28;20482;-61
2023/10/09 00:33:43;;;;;;;24.42;13.45;;;;;;;15.34;100.00;101914.91;5093668;28;20028;-62
2023/10/09 00:36:12;;;;;;;21.65;12.27;;;;;;;15.39;100.00;101926.47;5093967;28;20119;-62
2023/10/09 00:38:46;;;;;;;21.23;12.27;;;;;;;15.46;100.00;101926.56;5093574;28;20043;-61
2023/10/09 00:41:19;;;;;;;26.27;13.20;;;;;;;15.46;100.00;101912.31;5093816;28;20118;-61
2023/10/09 00:43:44;;;;;;;23.33;13.13;;;;;;;15.45;100.00;101906.09;5093546;28;20188;-61
2023/10/09 00:48:47;;;;;;;26.70;13.27;;;;;;;15.55;100.00;101912.41;5093863;28;20050;-62
2023/10/09 00:51:17;;;;;;;21.15;12.95;;;;;;;15.49;100.00;101893.69;5093039;28;20047;-61
2023/10/09 00:53:54;;;;;;;25.50;12.60;;;;;;;15.58;100.00;101912.41;5093662;28;20032;-62
2023/10/09 00:59:09;;;;;;;20.90;12.60;;;;;;;15.65;100.00;101913.38;5093570;28;20071;-61
2023/10/09 01:01:55;;;;;;;20.42;12.52;;;;;;;15.68;100.00;101916.97;5093102;28;20031;-61
2023/10/09 01:04:22;;;;;;;18.67;12.10;;;;;;;15.72;100.00;101918.78;5092831;28;20043;-62
2023/10/09 01:06:52;;;;;;;22.60;12.70;;;;;;;15.70;100.00;101909.88;5093433;28;20122;-63
2023/10/09 01:09:19;;;;;;;21.65;12.70;;;;;;;15.71;100.00;101908.97;5093479;28;20028;-61
2023/10/09 01:11:49;;;;;;;21.85;12.90;;;;;;;15.69;100.00;101915.19;5093008;28;20020;-62
2023/10/09 01:14:21;;;;;;;21.30;13.20;;;;;;;15.68;100.00;101910.75;5093253;28;20028;-61
2023/10/09 01:16:47;;;;;;;19.02;11.57;;;;;;;15.71;100.00;101908.09;5093265;28;20081;-61
2023/10/09 01:19:19;;;;;;;19.58;11.50;;;;;;;15.72;100.00;101912.56;5093193;28;20036;-62
2023/10/09 01:21:45;;;;;;;18.95;11.80;;;;;;;15.74;100.00;101910.78;5093164;28;20032;-61
2023/10/09 01:24:10;;;;;;;22.42;12.10;;;;;;;15.77;100.00;101902.81;5093222;28;20488;-62
2023/10/09 01:26:44;;;;;;;23.02;12.43;;;;;;;15.76;100.00;101899.28;5093023;28;20024;-61
2023/10/09 01:29:20;;;;;;;20.42;12.80;;;;;;;15.74;100.00;101914.34;5092920;28;20036;-61
2023/10/09 01:31:54;;;;;;;22.40;13.02;;;;;;;15.75;100.00;101913.44;5092974;28;20474;-61
2023/10/09 01:34:41;;;;;;;20.08;12.55;;;;;;;15.75;100.00;101924.09;5093152;28;20116;-60
2023/10/09 01:37:18;;;;;;;24.10;13.13;;;;;;;15.75;100.00;101924.09;5093131;28;20028;-61
2023/10/09 01:39:48;;;;;;;29.90;12.45;;;;;;;15.79;100.00;101922.38;5092915;28;20027;-60
2023/10/09 01:42:23;;;;;;;20.85;12.32;;;;;;;15.76;100.00;101915.25;5092960;28;20407;-61
2023/10/09 01:44:49;;;;;;;22.08;13.07;;;;;;;15.75;100.00;101918.78;5092971;28;20035;-62
2023/10/09 01:47:18;;;;;;;26.02;13.32;;;;;;;15.75;100.00;101909.91;5092697;28;20036;-61
2023/10/09 01:49:43;;;;;;;23.00;12.73;;;;;;;15.73;100.00;101911.69;5092504;28;20059;-61
2023/10/09 01:52:16;;;;;;;21.20;12.88;;;;;;;15.71;100.00;101906.31;5092457;28;20028;-61
2023/10/09 01:54:49;;;;;;;22.40;13.23;;;;;;;15.75;100.00;101907.22;5092718;28;20090;-61
2023/10/09 01:57:16;;;;;;;20.67;13.07;;;;;;;15.75;100.00;101915.22;5092582;28;20517;-62
2023/10/09 01:59:44;;;;;;;23.05;13.00;;;;;;;15.74;100.00;101910.78;5092545;28;20028;-61
2023/10/09 02:02:26;;;;;;;21.73;13.20;;;;;;;15.74;100.00;101905.47;5092860;28;20027;-61
2023/10/09 02:05:11;;;;;;;19.80;12.05;;;;;;;15.75;100.00;101894.78;5092688;28;20427;-61
2023/10/09 02:07:58;;;;;;;23.73;12.65;;;;;;;15.77;100.00;101901.03;5092845;28;20039;-61
2023/10/09 02:12:57;;;;;;;20.38;11.70;;;;;;;15.70;100.00;101903.66;5093847;28;20485;-61
2023/10/09 02:20:55;;;;;;;21.30;12.50;;;;;;;15.75;100.00;101901.91;5096414;28;20081;-60
2023/10/09 02:23:24;;;;;;;20.67;11.43;;;;;;;15.74;100.00;101898.34;5096486;28;20119;-62
2023/10/09 02:25:53;;;;;;;20.70;12.60;;;;;;;15.74;100.00;101892.13;5096052;28;20111;-62
2023/10/09 02:28:18;;;;;;;18.38;12.05;;;;;;;15.72;100.00;101892.13;5095989;28;20039;-61
2023/10/09 02:30:48;;;;;;;20.00;12.95;;;;;;;15.70;100.00;101890.31;5095986;28;20020;-61
2023/10/09 02:33:30;;;;;;;23.20;12.93;;;;;;;15.68;100.00;101889.44;5095997;28;20421;-62
2023/10/09 02:35:59;;;;;;;22.58;13.27;;;;;;;15.64;100.00;101883.19;5096077;28;20020;-61
2023/10/09 02:38:26;;;;;;;25.08;13.00;;;;;;;15.62;100.00;101874.25;5095879;28;20561;-62
2023/10/09 02:43:34;;;;;;;18.83;12.43;;;;;;;15.55;100.00;101866.22;5095756;28;20393;-61
2023/10/09 02:46:13;;;;;;;22.48;13.07;;;;;;;15.51;100.00;101862.66;5094667;28;20112;-62
2023/10/09 02:48:42;;;;;;;22.13;12.40;;;;;;;15.52;100.00;101857.31;5095683;28;20535;-60
2023/10/09 02:51:14;;;;;;;21.08;12.55;;;;;;;15.53;100.00;101853.78;5095166;28;20501;-61
2023/10/09 02:53:40;;;;;;;;;;;;;;;15.57;100.00;101860.00;5096127;28;20111;-60
2023/10/09 02:56:12;;;;;;;18.75;11.27;;;;;;;15.55;100.00;101866.22;5094304;28;20037;-61
2023/10/09 02:58:39;;;;;;;21.77;12.80;;;;;;;15.56;100.00;101860.00;5095536;28;20036;-61
2023/10/09 03:01:10;;;;;;;21.67;11.95;;;;;;;15.58;100.00;101861.78;5095508;28;20031;-62
2023/10/09 03:03:38;;;;;;;21.17;12.02;;;;;;;15.58;100.00;101863.56;5095701;28;20055;-61
2023/10/09 03:06:10;;;;;;;21.90;12.60;;;;;;;15.55;100.00;101875.13;5095482;28;20039;-60
2023/10/09 03:08:37;;;;;;;;;;;;;;;15.63;100.00;101869.81;5096088;28;20115;-61
2023/10/09 03:11:02;;;;;;;20.92;12.00;;;;;;;15.61;100.00;101868.94;5095204;28;19912;-61
2023/10/09 03:13:28;;;;;;;19.17;11.77;;;;;;;15.60;100.00;101864.47;5094717;28;20040;-61
2023/10/09 03:15:54;;;;;;;20.88;12.10;;;;;;;15.59;100.00;101868.00;5095153;28;20036;-61
2023/10/09 03:18:20;;;;;;;19.63;13.13;;;;;;;15.59;100.00;101870.66;5095061;28;20067;-60
2023/10/09 03:20:47;;;;;;;22.33;12.88;;;;;;;15.56;100.00;101858.25;5094973;28;20055;-61
2023/10/09 03:23:14;;;;;;;20.88;12.45;;;;;;;15.57;100.00;101843.16;5094579;28;20020;-61
2023/10/09 03:25:42;;;;;;;22.95;13.02;;;;;;;15.56;100.00;101844.03;5095302;28;20032;-61
2023/10/09 03:28:07;;;;;;;19.05;12.05;;;;;;;15.54;100.00;101844.00;5095074;28;20032;-60
2023/10/09 03:30:34;;;;;;;19.63;12.35;;;;;;;15.53;100.00;101839.56;5094833;28;20050;-61
2023/10/09 03:33:00;;;;;;;24.05;12.60;;;;;;;15.48;100.00;101842.19;5093511;28;20028;-61
2023/10/09 03:35:27;;;;;;;23.00;12.82;;;;;;;15.45;100.00;101839.50;5094803;28;20028;-61
2023/10/09 03:38:00;;;;;;;22.73;12.52;;;;;;;15.47;100.00;101840.44;5094756;28;20032;-62
2023/10/09 03:40:25;;;;;;;23.77;13.30;;;;;;;15.49;100.00;101835.97;5095076;28;20036;-61
2023/10/09 03:42:52;;;;;;;22.13;12.88;;;;;;;15.51;100.00;101834.25;5094797;28;20359;-61
2023/10/09 03:45:24;;;;;;;22.15;12.43;;;;;;;15.47;100.00;101819.13;5094922;28;20114;-60
2023/10/09 03:47:57;;;;;;;26.42;13.55;;;;;;;15.42;100.00;101818.19;5094583;28;20039;-61
2023/10/09 03:50:35;;;;;;;;;;;;;;;15.47;100.00;101824.44;5094466;28;20040;-62
2023/10/09 03:53:02;;;;;;;21.55;12.23;;;;;;;15.42;100.00;101830.63;5094631;28;19920;-61
2023/10/09 03:55:28;;;;;;;20.00;13.05;;;;;;;15.40;100.00;101837.69;5093225;28;20536;-61
2023/10/09 03:57:55;;;;;;;18.88;12.05;;;;;;;15.40;100.00;101832.38;5094538;28;20032;-61
2023/10/09 04:00:28;;;;;;;21.58;12.50;;;;;;;15.42;100.00;101836.84;5094356;28;20058;-61
2023/10/09 04:02:57;;;;;;;21.42;12.93;;;;;;;15.42;100.00;101831.53;5093053;28;20024;-61
2023/10/09 04:05:24;;;;;;;26.77;12.48;;;;;;;15.43;100.00;101830.63;5094188;28;20043;-61
2023/10/09 04:07:50;;;;;;;25.40;12.60;;;;;;;15.45;100.00;101835.97;5094206;28;20031;-61
2023/10/09 04:10:43;;;;;;;18.13;12.52;;;;;;;15.46;100.00;101837.72;5093987;28;20043;-62
2023/10/09 04:13:11;;;;;;;24.05;12.77;;;;;;;15.46;100.00;101832.41;5093892;28;20123;-61
2023/10/09 04:15:36;;;;;;;20.17;12.63;;;;;;;15.45;100.00;101826.19;5092854;28;20111;-62
2023/10/09 04:18:04;;;;;;;22.02;12.40;;;;;;;15.40;100.00;101819.94;5093992;28;20073;-61
2023/10/09 04:23:05;;;;;;;22.90;13.13;;;;;;;15.31;100.00;101811.91;5094202;28;20051;-61
2023/10/09 04:25:41;;;;;;;;;;;;;;;15.35;100.00;101803.06;5094370;28;20413;-62
2023/10/09 04:28:22;;;;;;;20.17;12.15;;;;;;;15.25;100.00;101810.09;5094082;28;19915;-60
2023/10/09 04:30:53;;;;;;;21.85;13.27;;;;;;;15.26;100.00;101811.88;5093705;28;20371;-61
2023/10/09 04:33:28;;;;;;;19.33;12.13;;;;;;;15.26;100.00;101816.31;5094004;28;20043;-60
2023/10/09 04:36:22;;;;;;;19.85;11.63;;;;;;;15.26;100.00;101806.53;5092974;28;20512;-61
2023/10/09 04:41:50;;;;;;;21.08;12.68;;;;;;;15.35;100.00;101844.78;5093650;28;20036;-61
2023/10/09 04:46:44;;;;;;;23.65;12.45;;;;;;;15.37;100.00;101851.88;5093460;28;20039;-61
2023/10/09 04:49:28;;;;;;;24.25;13.13;;;;;;;15.36;100.00;101851.88;5093203;28;20577;-61
2023/10/09 04:52:17;;;;;;;18.42;12.20;;;;;;;15.35;100.00;101852.75;5093253;28;20119;-61
2023/10/09 04:55:12;;;;;;;22.73;11.82;;;;;;;15.36;100.00;101855.44;5093567;28;20067;-62
2023/10/09 04:57:29;;;;;;;25.75;12.55;;;;;;;15.36;100.00;101857.22;5093265;28;20055;-61
2023/10/09 04:59:58;;;;;;;20.30;12.75;;;;;;;15.38;100.00;101856.34;5093417;28;20393;-60
2023/10/09 05:02:24;;;;;;;19.55;12.90;;;;;;;15.37;100.00;101846.56;5093370;28;20434;-60
2023/10/09 05:05:15;;;;;;;24.13;13.05;;;;;;;15.39;100.00;101836.81;5093242;28;20096;-61
2023/10/09 05:07:54;;;;;;;19.20;11.93;;;;;;;15.42;100.00;101854.59;5092994;28;20126;-62
2023/10/09 05:10:24;;;;;;;18.70;12.48;;;;;;;15.44;100.00;101847.50;5091859;28;20024;-61
2023/10/09 05:12:56;;;;;;;20.33;12.35;;;;;;;15.45;100.00;101852.81;5093014;28;20028;-60
2023/10/09 05:15:26;;;;;;;20.77;13.30;;;;;;;15.48;100.00;101854.63;5091701;28;20035;-61
2023/10/09 05:17:56;;;;;;;24.48;13.45;;;;;;;15.48;100.00;101851.97;5093163;28;20020;-61
2023/10/09 05:23:07;;;;;;;20.70;13.35;;;;;;;15.45;100.00;101836.84;5093363;28;20123;-61
2023/10/09 05:25:53;;;;;;;19.25;12.05;;;;;;;15.48;100.00;101854.63;5093315;28;20046;-61
2023/10/09 05:28:25;;;;;;;24.27;13.23;;;;;;;15.46;100.00;101856.38;5093195;28;20040;-62
2023/10/09 05:31:07;;;;;;;20.23;13.45;;;;;;;15.46;100.00;101854.63;5093215;28;20107;-61
2023/10/09 05:33:39;;;;;;;21.73;12.98;;;;;;;15.45;100.00;101862.59;5092968;28;20024;-61
2023/10/09 05:38:58;;;;;;;18.55;12.52;;;;;;;15.48;100.00;101867.94;5092948;28;20036;-61
2023/10/09 05:49:54;;;;;;;21.63;13.75;;;;;;;15.45;100.00;101874.13;5096623;28;20044;-61
2023/10/09 06:11:49;;;;;;;25.83;14.82;;;;;;;15.47;100.00;101907.03;5096084;28;20409;-60
2023/10/09 06:14:25;;;;;;;26.13;14.70;;;;;;;15.50;100.00;101907.06;5096165;28;20047;-60
2023/10/09 06:17:22;;;;;;;22.67;14.68;;;;;;;15.49;100.00;101902.56;5096003;28;20494;-61
2023/10/09 06:19:48;;;;;;;24.98;14.73;;;;;;;15.51;100.00;101899.94;5095629;28;20106;-61
2023/10/09 06:25:08;;;;;;;29.98;15.95;;;;;;;15.51;100.00;101895.50;5095940;28;20191;-61
2023/10/09 06:35:31;;;;;;;28.02;15.25;;;;;;;15.56;100.00;101914.19;5095793;28;20389;-61
2023/10/09 06:43:17;;;;;;;23.20;14.75;;;;;;;15.60;100.00;101905.34;5095635;28;20044;-62
2023/10/09 06:45:45;;;;;;;26.02;15.57;;;;;;;15.60;100.00;101904.44;5095172;28;20055;-62
2023/10/09 06:51:40;;;;;;;27.20;15.90;;;;;;;15.57;100.00;101885.78;5094821;28;20132;-61
2023/10/09 06:54:09;;;;;;;29.58;16.48;;;;;;;15.64;100.00;101904.50;5095078;28;20403;-62
2023/10/09 07:02:25;;;;;;;25.92;15.52;;;;;;;15.61;100.00;101872.47;5095395;28;20454;-61
2023/10/09 07:07:09;;;;;;;26.90;15.98;;;;;;;15.60;100.00;101864.47;5095123;28;20067;-61
2023/10/09 07:10:28;;;;;;;36.10;16.83;;;;;;;15.61;100.00;101875.13;5095051;28;20031;-62
2023/10/09 07:12:32;;;;;;;33.55;16.48;;;;;;;15.64;100.00;101859.22;5094437;28;20036;-60
2023/10/09 07:15:39;;;;;;;29.73;17.15;;;;;;;15.63;100.00;101849.41;5094839;28;20470;-61
2023/10/09 07:17:52;;;;;;;24.60;16.33;;;;;;;15.68;100.00;101841.47;5094495;28;20044;-61
2023/10/09 07:23:14;;;;;;;26.00;16.13;;;;;;;15.74;100.00;101844.16;5094973;28;20097;-61
2023/10/09 07:25:54;;;;;;;26.75;16.48;;;;;;;15.77;100.00;101854.84;5094539;28;20488;-61
2023/10/09 07:28:36;;;;;;;26.25;15.82;;;;;;;15.81;100.00;101864.66;5094482;28;20478;-61
2023/10/09 07:31:02;;;;;;;26.35;16.00;;;;;;;15.88;100.00;101895.75;5094485;28;20474;-61
2023/10/09 07:33:33;;;;;;;24.95;14.75;;;;;;;15.92;100.00;101907.34;5094845;28;20032;-62
2023/10/09 07:36:05;;;;;;;26.23;15.48;;;;;;;15.93;100.00;101903.78;5094471;28;20028;-61
2023/10/09 07:38:37;;;;;;;28.85;15.15;;;;;;;15.95;100.00;101913.59;5094664;28;20050;-61
2023/10/09 07:43:39;;;;;;;27.00;15.10;;;;;;;15.96;100.00;101933.13;5094509;28;20495;-61
2023/10/09 07:48:54;;;;;;;23.13;15.38;;;;;;;16.00;100.00;101929.59;5094311;28;20492;-61
2023/10/09 07:51:23;;;;;;;26.50;15.68;;;;;;;16.01;100.00;101928.72;5093637;28;20509;-61
2023/10/09 07:54:06;;;;;;;29.10;15.82;;;;;;;16.00;100.00;101926.94;5094242;28;20016;-61
2023/10/09 07:56:45;;;;;;;28.15;15.88;;;;;;;16.01;100.00;101916.25;5094019;28;20039;-61
2023/10/09 07:59:12;;;;;;;25.17;15.35;;;;;;;16.02;100.00;101910.06;5094009;28;20036;-61
2023/10/09 08:01:52;;;;;;;28.05;16.65;;;;;;;16.00;100.00;101905.59;5093914;28;20578;-62
2023/10/09 08:04:37;;;;;;;29.27;16.23;;;;;;;15.95;100.00;101892.25;5094049;28;20453;-62
2023/10/09 08:07:34;;;;;;;26.55;16.08;;;;;;;15.94;100.00;101885.16;5092693;28;20028;-62
2023/10/09 08:12:57;;;;;;;22.83;14.65;;;;;;;15.98;100.00;101926.06;5093624;28;20569;-62
2023/10/09 08:15:26;;;;;;;27.35;16.25;;;;;;;16.00;100.00;101918.94;5093585;28;20039;-62
2023/10/09 08:17:59;;;;;;;29.83;16.70;;;;;;;16.05;100.00;101921.63;5093728;28;20032;-62
2023/10/09 08:20:26;;;;;;;25.00;15.77;;;;;;;16.05;100.00;101919.84;5092989;28;20024;-62
2023/10/09 08:22:55;;;;;;;27.67;16.65;;;;;;;16.09;100.00;101910.97;5092825;28;20382;-62
2023/10/09 08:25:35;;;;;;;23.60;16.02;;;;;;;16.10;100.00;101907.47;5093293;28;20024;-62
2023/10/09 08:31:02;;;;;;;28.38;16.60;;;;;;;16.19;100.00;101895.94;5093414;28;20037;-62
2023/10/09 08:33:40;;;;;;;27.25;17.05;;;;;;;16.21;100.00;101886.16;5093319;28;20040;-62
2023/10/09 08:36:07;;;;;;;32.20;18.02;;;;;;;16.25;100.00;101885.28;5093523;28;20094;-62
2023/10/09 08:38:33;;;;;;;27.88;16.80;;;;;;;16.31;100.00;101879.97;5093172;28;20035;-63
2023/10/09 08:41:22;;;;;;;31.45;17.63;;;;;;;16.39;100.00;101874.66;5093110;28;20150;-62
2023/10/09 08:43:53;;;;;;;29.40;17.67;;;;;;;16.50;100.00;101875.59;5091665;28;20474;-62
2023/10/09 08:46:20;;;;;;;25.48;16.35;;;;;;;16.61;100.00;101879.16;5093436;28;20027;-62
2023/10/09 08:48:46;;;;;;;29.27;16.50;;;;;;;16.72;100.00;101888.13;5093200;28;20038;-62
2023/10/09 08:51:11;;;;;;;31.17;17.48;;;;;;;16.78;100.00;101879.22;5092345;28;20358;-63
2023/10/09 08:53:42;;;;;;;32.53;17.45;;;;;;;16.82;100.00;101883.69;5093202;28;20028;-62
2023/10/09 08:56:09;;;;;;;31.95;17.30;;;;;;;16.91;100.00;101874.81;5091629;28;20233;-63
2023/10/09 08:58:37;;;;;;;25.65;16.73;;;;;;;16.99;100.00;101887.28;5093028;28;20032;-62
2023/10/09 09:01:02;;;;;;;28.77;17.10;;;;;;;17.12;100.00;101885.50;5093057;28;20038;-61
2023/10/09 09:03:43;;;;;;;29.00;17.08;;;;;;;17.28;100.00;101887.28;5092810;28;20114;-61
2023/10/09 09:06:09;;;;;;;32.75;16.05;;;;;;;17.44;99.38;101890.84;5092422;28;20031;-61
2023/10/09 09:08:36;;;;;;;29.55;16.52;;;;;;;17.64;99.00;101897.94;5092655;28;20043;-62
2023/10/09 09:11:23;;;;;;;28.60;15.25;;;;;;;17.84;97.56;101922.91;5092892;28;20032;-62
2023/10/09 09:14:12;;;;;;;24.92;16.20;;;;;;;18.00;96.46;101940.69;5092630;28;20520;-61
2023/10/09 09:16:44;;;;;;;29.40;17.00;;;;;;;18.14;95.91;101929.94;5092656;28;20036;-62
2023/10/09 09:21:44;;;;;;;29.50;15.70;;;;;;;18.46;94.13;101940.53;5091970;28;20127;-62
2023/10/09 09:24:30;;;;;;;25.65;15.77;;;;;;;18.58;93.19;101941.38;5092279;28;20028;-61
2023/10/09 09:27:12;;;;;;;28.80;15.20;;;;;;;18.70;92.38;101931.53;5109805;28;20442;-61
2023/10/09 09:29:37;;;;;;;25.30;15.18;;;;;;;18.79;91.17;101937.72;5113260;28;20036;-62
2023/10/09 09:32:20;;;;;;;29.65;16.35;;;;;;;18.83;91.09;101947.53;5112821;28;20038;-61
2023/10/09 09:34:49;;;;;;;26.80;16.23;;;;;;;18.87;91.01;101942.13;5112654;28;20032;-64
2023/10/09 09:37:28;;;;;;;27.30;16.85;;;;;;;18.94;91.08;101953.72;5111513;28;20049;-63
2023/10/09 09:40:27;;;;;;;31.10;16.38;;;;;;;18.96;90.88;101960.81;5112507;28;20028;-62
2023/10/09 09:43:11;;;;;;;25.98;15.95;;;;;;;18.97;90.13;101954.59;5105763;28;20066;-62
2023/10/09 09:45:37;;;;;;;30.38;16.77;;;;;;;18.99;89.76;101958.13;5092365;28;20032;-63
2023/10/09 09:48:15;;;;;;;28.27;16.85;;;;;;;19.05;90.11;101961.66;5100805;28;20027;-61
2023/10/09 09:50:45;;;;;;;28.45;16.67;;;;;;;19.11;90.84;101962.53;5111154;28;20048;-62
2023/10/09 09:53:16;;;;;;;22.85;15.73;;;;;;;19.15;89.98;101964.28;5112992;28;20433;-63
2023/10/09 09:55:51;;;;;;;34.95;18.02;;;;;;;19.19;89.33;101962.50;5112798;28;20039;-62
2023/10/09 09:58:23;;;;;;;29.52;17.55;;;;;;;19.24;89.19;101968.69;5113012;28;20541;-62
2023/10/09 10:00:55;;;;;;;32.23;18.07;;;;;;;19.21;88.21;101956.19;5113108;28;20059;-62
2023/10/09 10:03:32;;;;;;;26.83;17.05;;;;;;;19.24;89.25;101963.34;5112627;28;20472;-60
2023/10/09 10:06:05;;;;;;;29.08;17.98;;;;;;;19.27;87.81;101965.97;5112677;28;20028;-62
2023/10/09 10:08:32;;;;;;;29.70;16.98;;;;;;;19.36;88.88;101959.69;5106601;28;20031;-61
2023/10/09 10:11:13;;;;;;;30.13;18.20;;;;;;;19.49;88.85;101964.94;5097339;28;20020;-62
2023/10/09 10:13:42;;;;;;;28.30;19.33;;;;;;;19.61;88.37;101966.63;5098118;28;20032;-61
2023/10/09 10:21:50;;;;;;;25.50;18.00;;;;;;;19.81;86.52;101952.16;5048938;28;20135;-63
2023/10/09 10:25:18;;;;;;;26.85;18.13;;;;;;;19.82;87.28;101954.81;5091031;28;20031;-61
2023/10/09 10:27:26;;;;;;;27.98;18.42;;;;;;;19.79;86.36;101957.56;5073199;28;20044;-62
2023/10/09 10:30:23;;;;;;;30.25;18.75;;;;;;;19.83;87.01;101961.97;5092068;28;20098;-62
2023/10/09 10:32:52;;;;;;;34.13;18.77;;;;;;;19.85;86.72;101956.59;5090682;28;20031;-63
2023/10/09 10:35:32;;;;;;;30.20;19.42;;;;;;;19.92;86.85;101966.38;5095637;28;20028;-63
2023/10/09 10:40:41;;;;;;;33.17;18.73;;;;;;;19.97;86.00;101960.03;5095517;28;20036;-62
2023/10/09 10:48:59;;;;;;;32.85;19.23;;;;;;;20.37;85.04;101945.28;5095696;28;20059;-63
2023/10/09 10:51:40;;;;;;;30.40;19.00;;;;;;;20.36;84.62;101948.88;5094719;28;20520;-61
2023/10/09 10:54:28;;;;;;;29.92;19.33;;;;;;;20.42;84.70;101943.41;5095295;28;20028;-62
2023/10/09 10:56:57;;;;;;;27.38;17.85;;;;;;;20.47;84.23;101950.53;5095086;28;20036;-62
2023/10/09 10:59:23;;;;;;;28.33;18.55;;;;;;;20.50;83.74;101949.59;5095081;28;20035;-64
2023/10/09 11:02:52;;;;;;;34.65;20.25;;;;;;;20.49;84.08;101947.84;5095104;28;20040;-63
2023/10/09 11:04:53;;;;;;;27.92;18.52;;;;;;;20.61;84.26;101957.53;5081388;28;20048;-62
2023/10/09 11:07:24;;;;;;;32.40;19.27;;;;;;;20.69;83.93;101959.22;5095369;28;20074;-62
2023/10/09 11:15:43;;;;;;;34.20;19.85;;;;;;;20.92;83.12;101966.94;5094129;28;20032;-62
2023/10/09 11:18:19;;;;;;;32.97;19.65;;;;;;;20.96;82.63;101963.31;5094217;28;20036;-62
2023/10/09 11:20:56;;;;;;;31.52;19.67;;;;;;;21.08;83.64;101966.75;5094020;28;20044;-61
2023/10/09 11:29:12;;;;;;;29.95;19.02;;;;;;;21.41;81.55;101955.50;5094008;28;20044;-62
2023/10/09 11:31:39;;;;;;;30.25;18.42;;;;;;;21.51;81.13;101953.53;5093452;28;20434;-62
2023/10/09 11:34:28;;;;;;;31.50;18.48;;;;;;;21.61;81.51;101943.50;5094488;28;20024;-63
2023/10/09 11:36:55;;;;;;;30.67;18.65;;;;;;;21.70;80.69;101944.22;5094464;28;20448;-62
2023/10/09 11:39:34;;;;;;;31.58;18.02;;;;;;;21.82;80.25;101939.53;5094324;28;20024;-62
2023/10/09 11:42:07;;;;;;;30.08;17.58;;;;;;;22.03;79.79;101951.69;5094597;28;20024;-63
2023/10/09 11:44:39;;;;;;;27.00;15.95;;;;;;;22.21;79.29;101944.16;5092764;28;20027;-62
2023/10/09 11:52:35;;;;;;;20.48;12.38;;;;;;;22.49;75.63;101940.94;5094041;28;20035;-62
2023/10/09 11:55:14;;;;;;;20.23;11.88;;;;;;;22.42;74.99;101950.03;5094384;28;20051;-62
2023/10/09 11:57:41;;;;;;;21.88;12.95;;;;;;;22.26;75.02;101954.84;5093956;28;20047;-62
2023/10/09 12:00:12;;;;;;;19.52;12.07;;;;;;;22.29;75.59;101954.78;5093964;28;20507;-63
2023/10/09 12:02:43;;;;;;;17.27;11.50;;;;;;;22.22;76.11;101940.56;5094035;28;20035;-61
2023/10/09 12:05:16;;;;;;;20.92;12.20;;;;;;;22.25;76.68;101958.47;5094036;28;20105;-61
2023/10/09 12:07:54;;;;;;;19.83;11.70;;;;;;;22.17;76.58;101953.22;5092596;28;20036;-63
2023/10/09 12:10:26;;;;;;;25.35;11.88;;;;;;;22.22;76.44;101959.41;5094109;28;20036;-62
2023/10/09 12:12:52;;;;;;;20.35;11.52;;;;;;;22.21;76.40;101957.63;5093629;28;20039;-62
2023/10/09 12:15:19;;;;;;;22.98;11.52;;;;;;;22.08;75.86;101944.41;5093921;28;20374;-62
2023/10/09 12:17:46;;;;;;;24.88;11.48;;;;;;;22.11;76.63;101944.38;5093857;28;20032;-62
2023/10/09 12:20:29;;;;;;;20.90;11.20;;;;;;;22.11;77.45;101941.69;5093872;28;20481;-62
2023/10/09 12:22:57;;;;;;;20.00;10.38;;;;;;;22.12;76.65;101935.38;5093769;28;20051;-62
2023/10/09 12:25:23;;;;;;;21.95;10.57;;;;;;;22.13;76.66;101951.50;5093794;28;20036;-63
2023/10/09 12:27:48;;;;;;;18.40;9.82;;;;;;;22.10;76.37;101932.72;5093305;28;20461;-62
2023/10/09 12:30:14;;;;;;;17.15;9.13;;;;;;;22.06;75.51;101938.19;5093438;28;20028;-63
2023/10/09 12:32:40;;;;;;;16.23;8.50;;;;;;;22.06;76.39;101941.78;5093796;28;20020;-62
2023/10/09 12:35:17;;;;;;;14.30;8.30;;;;;;;22.05;75.66;101934.59;5093713;28;20028;-62
2023/10/09 12:37:43;;;;;;;15.65;8.45;;;;;;;22.03;75.47;101927.47;5093544;28;20121;-62
2023/10/09 12:40:10;;;;;;;17.42;8.65;;;;;;;22.06;75.81;101922.03;5093225;28;20044;-62
2023/10/09 12:42:36;;;;;;;16.67;8.88;;;;;;;22.11;76.17;101925.53;5093006;28;20408;-62
2023/10/09 12:45:08;;;;;;;16.48;8.45;;;;;;;22.19;76.53;101916.41;5093234;28;20040;-62
2023/10/09 12:47:34;;;;;;;18.23;8.45;;;;;;;22.23;75.80;101923.50;5093943;28;20039;-63
2023/10/09 12:49:59;;;;;;;17.83;8.35;;;;;;;22.25;75.18;101918.97;5101539;28;20366;-61
2023/10/09 12:52:29;;;;;;;22.05;9.10;;;;;;;22.29;75.69;101916.22;5101456;28;20032;-62
2023/10/09 12:54:55;;;;;;;14.02;8.00;;;;;;;22.28;74.55;101917.13;5102107;28;20019;-62
2023/10/09 12:57:20;;;;;;;15.48;8.02;;;;;;;22.26;75.29;101903.69;5102934;28;20020;-63
2023/10/09 12:59:48;;;;;;;21.70;8.38;;;;;;;22.27;75.00;101902.78;5101781;28;20028;-63
2023/10/09 13:02:28;;;;;;;18.63;8.38;;;;;;;22.30;74.83;101891.06;5102088;28;20362;-62
2023/10/09 13:04:57;;;;;;;17.33;8.23;;;;;;;22.40;74.03;101900.72;5101454;28;20020;-63
2023/10/09 13:07:22;;;;;;;16.48;7.70;;;;;;;22.46;73.14;101882.59;5093987;28;20126;-62
2023/10/09 13:12:32;;;;;;;17.35;8.57;;;;;;;22.50;72.44;101896.91;5093053;28;20039;-63
2023/10/09 13:14:58;;;;;;;18.83;8.05;;;;;;;22.55;72.47;101889.59;5092692;28;20024;-62
2023/10/09 13:17:26;;;;;;;15.25;7.78;;;;;;;22.49;73.05;101901.41;5092856;28;20095;-62
2023/10/09 13:19:52;;;;;;;17.67;8.07;;;;;;;22.57;72.41;101903.03;5092686;28;20028;-62
2023/10/09 13:22:18;;;;;;;13.88;7.60;;;;;;;22.52;71.04;101896.84;5092841;28;20024;-61
2023/10/09 13:24:43;;;;;;;12.57;7.07;;;;;;;22.47;71.51;101897.84;5092806;28;20036;-62
2023/10/09 13:27:09;;;;;;;17.30;7.65;;;;;;;22.43;71.51;101904.22;5092677;28;20154;-63
2023/10/09 13:29:39;;;;;;;16.00;7.82;;;;;;;22.41;72.66;101906.06;5092798;28;20032;-61
2023/10/09 13:32:13;;;;;;;17.95;8.32;;;;;;;22.37;73.11;101907.06;5092705;28;20107;-62
2023/10/09 13:34:44;;;;;;;15.50;8.60;;;;;;;22.43;72.79;101911.41;5092692;28;20058;-60
2023/10/09 13:37:13;;;;;;;15.13;8.20;;;;;;;22.49;73.04;101916.69;5092824;28;20036;-62
2023/10/09 13:39:40;;;;;;;17.35;8.32;;;;;;;22.56;72.16;101910.22;5092520;28;20635;-63
2023/10/09 13:42:07;;;;;;;14.82;8.23;;;;;;;22.50;72.53;101899.59;5092440;28;20028;-63
2023/10/09 13:44:33;;;;;;;15.70;7.90;;;;;;;22.61;71.88;101908.34;5092404;28;20051;-62
2023/10/09 13:47:09;;;;;;;17.35;7.40;;;;;;;22.69;71.48;101909.03;5092139;28;20036;-62
2023/10/09 13:49:37;;;;;;;21.58;8.00;;;;;;;22.77;71.69;101918.75;5091449;28;20075;-61